Monday, February 18, 2019, 5:24 AM EST
Back to Local

KMGJ, Montgomery Orange Co Airport

Location: Montgomery, NY, United States Lat: 41.517
Local Time: 5:24 AM EST (10:24 GMT) Lon: -74.267
Time Zone: US/Eastern Elev: 354 ft

Show me the last for .
Show Decoded

2019-02-18 04:54 METAR KMGJ 180954Z AUTO 01006KT 4SM UP BR BKN005 OVC009 M03/M03 A2980 RMK AO2
                 UPB42SNE18 CIG 004V008 SLP094 P0000 I1000 T10281028 =
2019-02-18 04:47 METAR KMGJ 180947Z AUTO 03004KT 4SM UP BR OVC007 M03/M03 A2979 RMK AO2
                 UPB42SNE18 CIG 005V010 P0000 I1000 T10281028 =
2019-02-18 04:26 METAR KMGJ 180926Z AUTO 02005KT 4SM BR OVC010 M03/M03 A2981 RMK AO2 SNE18 CIG
                 006V012 P0000 T10281033 =
2019-02-18 04:12 METAR KMGJ 180912Z AUTO 02006KT 3SM -SN BR BKN009 OVC015 M03/M03 A2981 RMK AO2
                 P0000 T10281033 =
2019-02-18 04:03 METAR KMGJ 180903Z AUTO 02005KT 2SM -SN BR BKN010 OVC015 M03/M03 A2982 RMK AO2
                 P0000 T10281033 =
2019-02-18 03:54 METAR KMGJ 180854Z AUTO 03004KT 1 1/4SM -SN BR BKN015 OVC022 M03/M03 A2981 RMK
                 AO2 SLP099 P0001 60011 T10281028 58023 =
2019-02-18 03:47 METAR KMGJ 180847Z AUTO 05004KT 1 1/2SM -SN BR OVC015 M03/M03 A2981 RMK AO2
                 P0001 T10281033 =
2019-02-18 03:20 METAR KMGJ 180820Z AUTO 02003KT 1 1/4SM -SN BR FEW005 OVC010 M03/M03 A2982 RMK
                 AO2 P0001 T10281028 =
2019-02-18 03:09 METAR KMGJ 180809Z AUTO 07004KT 1 3/4SM -SN BR BKN008 OVC014 M02/M03 A2982 RMK
                 AO2 PRESFR P0001 T10221028 =
2019-02-18 03:07 METAR KMGJ 180807Z AUTO 04004KT 2SM -SN BR BKN010 OVC014 M02/M03 A2983 RMK AO2
                 P0001 T10221028 =
2019-02-18 02:54 METAR KMGJ 180754Z AUTO 01005KT 2 1/2SM -SN BR BKN008 OVC014 M02/M03 A2985 RMK
                 AO2 UPE18SNB18 CIG 006V010 SLP111 P0004 T10221028 =
2019-02-18 02:49 METAR KMGJ 180749Z AUTO 03004KT 1 3/4SM -SN BR BKN007 OVC014 M02/M03 A2985 RMK
                 AO2 UPE18SNB18 CIG 005V010 P0004 =
2019-02-18 02:31 METAR KMGJ 180731Z AUTO 02006KT 2 1/2SM -SN BR BKN007 OVC018 M02/M03 A2986 RMK
                 AO2 UPE18SNB18 P0003 T10221033 =
2019-02-18 02:11 METAR KMGJ 180711Z AUTO 05005KT 2 1/2SM UP BR FEW007 BKN019 OVC027 M02/M03 A2985
                 RMK AO2 PRESFR P0002 T10221033 =
2019-02-18 02:02 METAR KMGJ 180702Z AUTO 07004KT 3SM UP BR BKN019 OVC027 M02/M03 A2987 RMK AO2
                 P0001 T10221033 =
2019-02-18 01:54 METAR KMGJ 180654Z AUTO 06004KT 2 1/2SM UP BR FEW009 BKN018 OVC025 M02/M03 A2988
                 RMK AO2 UPB38SNE38 SLP122 P0006 T10221033 =
2019-02-18 01:42 METAR KMGJ 180642Z AUTO 04005KT 2 1/2SM UP BR FEW008 OVC018 M02/M03 A2989 RMK
                 AO2 UPB38SNE38 P0005 T10221028 =
2019-02-18 01:09 METAR KMGJ 180609Z AUTO 09004KT 1 3/4SM -SN BR FEW009 OVC021 M02/M03 A2989 RMK
                 AO2 P0002 T10221028 =
2019-02-18 00:54 METAR KMGJ 180554Z AUTO 00000KT 2 1/2SM -SN BR OVC023 M02/M03 A2992 RMK AO2
                 UPE12B29E43SNB43 SLP135 P0002 60017 I1000 I6000 T10221033 10006 21022 56018 =
2019-02-18 00:32 METAR KMGJ 180532Z AUTO 06003KT 4SM UP BR BKN025 OVC034 M02/M03 A2991 RMK AO2
                 UPE12B29 P0000 I1000 T10221033 =
2019-02-17 23:54 METAR KMGJ 180454Z AUTO 07003KT 3SM UP BR OVC045 M02/M03 A2993 RMK AO2
                 UPE03B13SNB03E13 SLP138 P0003 I1000 T10221033 400221094 =
2019-02-17 23:30 METAR KMGJ 180430Z AUTO 06004KT 5SM UP BR SCT008 OVC045 M02/M03 A2994 RMK AO2
                 UPE03B13SNB03E13 P0001 I1000 T10221028 =
2019-02-17 23:07 METAR KMGJ 180407Z AUTO 02004KT 5SM -SN BR BKN007 OVC049 M02/M03 A2995 RMK AO2
                 UPE03SNB03 CIG 006V012 P0000 I1000 T10221028 =
2019-02-17 22:54 METAR KMGJ 180354Z AUTO 02004KT 6SM UP BR FEW009 OVC049 M02/M03 A2995 RMK AO2
                 UPB18E21B41SNE18B21E41 SLP148 P0005 T10221028 =
2019-02-17 22:39 METAR KMGJ 180339Z AUTO 05003KT 4SM -SN BR OVC046 M02/M03 A2995 RMK AO2
                 UPB18E21SNE18B21 P0005 T10221033 =
2019-02-17 22:29 METAR KMGJ 180329Z AUTO 00000KT 2 1/2SM -SN BR SCT034 OVC050 M02/M03 A2996 RMK
                 AO2 UPB18E21SNE18B21 P0003 T10221028 =
2019-02-17 22:11 METAR KMGJ 180311Z AUTO 12005KT 4SM -SN BR FEW015 OVC050 M02/M03 A2995 RMK AO2
                 PRESFR P0000 T10221028 =
2019-02-17 22:03 METAR KMGJ 180303Z AUTO 00000KT 2 1/2SM -SN BR SCT017 OVC050 M02/M03 A2997 RMK
                 AO2 P0000 T10221028 =
2019-02-17 21:54 METAR KMGJ 180254Z AUTO 00000KT 1 1/4SM -SN BR BKN019 OVC050 M02/M03 A2997 RMK
                 AO2 UPB08E12SNE08B12 SLP154 P0006 60007 T10221028 55004 =
2019-02-17 21:39 METAR KMGJ 180239Z AUTO 00000KT 1 3/4SM -SN BR BKN026 OVC050 M02/M03 A2998 RMK
                 AO2 UPB08E12SNE08B12 P0003 T10221028 =
2019-02-17 21:31 METAR KMGJ 180231Z AUTO 00000KT 2SM -SN BR BKN028 OVC050 M02/M03 A2999 RMK AO2
                 UPB08E12SNE08B12 P0003 T10171028 =
2019-02-17 21:02 METAR KMGJ 180202Z AUTO 03003KT 4SM -SN BR OVC050 M02/M03 A2995 RMK AO2 P0001
                 T10171028 =
2019-02-17 20:54 METAR KMGJ 180154Z AUTO 00000KT 2 1/2SM -SN BR OVC050 M02/M03 A2996 RMK AO2
                 SNB0056 SLP150 P0001 T10171033 =
2019-02-17 20:37 METAR KMGJ 180137Z AUTO 00000KT 5SM -SN BR FEW012 FEW024 OVC050 M02/M04 A2997
                 RMK AO2 SNB0056 P0000 T10171039 =
2019-02-17 20:26 METAR KMGJ 180126Z AUTO 18003KT 3SM -SN BR BKN018 BKN024 OVC055 M02/M04 A2998
                 RMK AO2 SNB0056 P0000 T10171039 =
2019-02-17 20:18 METAR KMGJ 180118Z AUTO 18004KT 1 1/4SM -SN BR BKN020 OVC026 M02/M04 A2997 RMK
                 AO2 SNB0056 P0000 T10171039 =
2019-02-17 20:07 METAR KMGJ 180107Z AUTO 14006KT 2 1/2SM -SN OVC028 M01/M05 A2998 RMK AO2 SNB0056
                 P0000 T10111050 =
2019-02-17 19:54 METAR KMGJ 180054Z AUTO 15010G15KT 9SM BKN036 OVC060 01/M08 A2998 RMK AO2 SLP158
                 T00061078 =
2019-02-17 18:54 METAR KMGJ 172354Z AUTO 12005KT 10SM OVC050 01/M08 A2999 RMK AO2 SLP159
                 T00061083 10022 20000 57003 =
2019-02-17 17:54 METAR KMGJ 172254Z AUTO 09004KT 10SM OVC100 01/M08 A2999 RMK AO2 SLP159
                 T00061083 =
2019-02-17 16:54 METAR KMGJ 172154Z AUTO 04004KT 10SM SCT110 02/M09 A3000 RMK AO2 SLP163
                 T00171089 =
2019-02-17 15:54 METAR KMGJ 172054Z AUTO 00000KT 10SM CLR 02/M09 A3000 RMK AO2 SLP163 T00221094
                 56043 =
2019-02-17 14:54 METAR KMGJ 171954Z AUTO 00000KT 10SM CLR 02/M09 A3003 RMK AO2 SLP172 T00171094 =
2019-02-17 13:54 METAR KMGJ 171854Z AUTO 16003KT 10SM CLR 01/M09 A3006 RMK AO2 PRESFR SLP185
                 T00111094 =
2019-02-17 12:54 METAR KMGJ 171754Z AUTO 00000KT 10SM CLR 01/M09 A3013 RMK AO2 SLP206 T00061094
                 10006 21094 55001 =
2019-02-17 11:54 METAR KMGJ 171654Z AUTO VRB03KT 10SM CLR M01/M09 A3007 RMK AO2 SLP188 T10061094
                 =
2019-02-17 10:54 METAR KMGJ 171554Z AUTO VRB05KT 10SM CLR M02/M10 A3012 RMK AO2 SLP204 T10171100
                 =
2019-02-17 09:54 METAR KMGJ 171454Z AUTO 01003KT 10SM CLR M03/M09 A3013 RMK AO2 SLP207 T10281089
                 50013 =
2019-02-17 08:54 METAR KMGJ 171354Z AUTO 00000KT 10SM CLR M05/M09 A3015 RMK AO2 SLP214 T10501094
                 =
2019-02-17 07:54 METAR KMGJ 171254Z AUTO 00000KT 10SM CLR M07/M09 A3013 RMK AO2 SLP207 T10721094
                 =
2019-02-17 06:54 METAR KMGJ 171154Z AUTO 00000KT 10SM CLR M09/M11 A3009 RMK AO2 SLP194 T10941106
                 11044 21094 53006 =
2019-02-17 05:54 METAR KMGJ 171054Z AUTO 00000KT 10SM CLR M08/M11 A3007 RMK AO2 SLP188 T10781106
                 =

Support USWX by starting your Amazon purchase here.